^^
TXWeather Station Historical Data
Daily Summary for February 16, 2022 Units:  English    Metric   Both
Daily Weekly Monthly Yearly Custom
  High: Low: Average:
Temperature: 77.0 °F 61.0 °F 66.9 °F
Dew Point: 66.0 °F 58.0 °F 61.8 °F
Humidity: 91% 60% 84%
Wind Speed: 24mph 3mph 11.7mph
Wind Gust: 26mph - -
Wind- - SSE
Pressure: 30.2 in 29.9 in -
Precipitation: 0.070 in    
Historical Graphs
 
 
Tabular Data for February 16, 2022
Time Temperature Dew Point Pressure Wind Wind Speed Wind Gust Humidity Rainfall Rate (Hourly) solar
00:04 63.0 °F 59.0 °F 30.2 in SE 11 mph 14 mph 86% 0.000 in 0.00 W/m2
00:09 63.0 °F 59.0 °F 30.2 in SE 10 mph 12 mph 86% 0.000 in 0.00 W/m2
00:14 63.0 °F 59.0 °F 30.2 in SE 15 mph 15 mph 86% 0.000 in 0.00 W/m2
00:19 63.0 °F 59.0 °F 30.2 in SE 14 mph 14 mph 86% 0.000 in 0.00 W/m2
00:24 63.0 °F 59.0 °F 30.2 in SE 15 mph 15 mph 86% 0.000 in 0.00 W/m2
00:29 63.0 °F 59.0 °F 30.2 in SE 11 mph 12 mph 86% 0.000 in 0.00 W/m2
00:34 63.0 °F 59.0 °F 30.2 in SE 12 mph 12 mph 86% 0.000 in 0.00 W/m2
00:39 63.0 °F 59.0 °F 30.2 in SE 11 mph 11 mph 86% 0.000 in 0.00 W/m2
00:44 63.0 °F 59.0 °F 30.2 in SE 9 mph 10 mph 86% 0.000 in 0.00 W/m2
00:49 63.0 °F 59.0 °F 30.2 in SE 9 mph 10 mph 86% 0.000 in 0.00 W/m2
00:54 63.0 °F 59.0 °F 30.2 in SE 9 mph 9 mph 86% 0.000 in 0.00 W/m2
00:59 63.0 °F 59.0 °F 30.2 in SE 10 mph 12 mph 86% 0.000 in 0.00 W/m2
01:04 63.0 °F 59.0 °F 30.2 in SSE 13 mph 13 mph 86% 0.000 in 0.00 W/m2
01:09 64.0 °F 60.0 °F 30.2 in SE 11 mph 13 mph 87% 0.000 in 0.00 W/m2
01:14 64.0 °F 60.0 °F 30.2 in SSE 12 mph 15 mph 87% 0.000 in 0.00 W/m2
01:19 64.0 °F 60.0 °F 30.2 in SE 13 mph 15 mph 87% 0.000 in 0.00 W/m2
01:24 64.0 °F 60.0 °F 30.2 in SE 12 mph 13 mph 87% 0.000 in 0.00 W/m2
01:29 64.0 °F 60.0 °F 30.2 in SE 13 mph 14 mph 87% 0.000 in 0.00 W/m2
01:34 64.0 °F 60.0 °F 30.1 in SE 11 mph 14 mph 87% 0.000 in 0.00 W/m2
01:39 64.0 °F 60.0 °F 30.1 in SSE 12 mph 12 mph 87% 0.000 in 0.00 W/m2
01:44 64.0 °F 60.0 °F 30.1 in SE 11 mph 11 mph 86% 0.000 in 0.00 W/m2
01:49 64.0 °F 60.0 °F 30.1 in SE 12 mph 14 mph 86% 0.000 in 0.00 W/m2
01:54 64.0 °F 60.0 °F 30.1 in SSE 10 mph 14 mph 86% 0.000 in 0.00 W/m2
01:59 64.0 °F 60.0 °F 30.1 in SE 10 mph 11 mph 86% 0.000 in 0.00 W/m2
02:04 64.0 °F 60.0 °F 30.1 in SE 12 mph 12 mph 86% 0.000 in 0.00 W/m2
02:09 64.0 °F 59.0 °F 30.1 in SE 11 mph 12 mph 86% 0.000 in 0.00 W/m2
02:14 64.0 °F 59.0 °F 30.1 in SE 9 mph 10 mph 86% 0.000 in 0.00 W/m2
02:19 64.0 °F 59.0 °F 30.1 in SE 11 mph 13 mph 86% 0.000 in 0.00 W/m2
02:24 64.0 °F 59.0 °F 30.1 in SE 9 mph 13 mph 86% 0.000 in 0.00 W/m2
02:29 64.0 °F 59.0 °F 30.1 in SE 10 mph 10 mph 86% 0.000 in 0.00 W/m2
02:34 63.0 °F 59.0 °F 30.1 in SSE 11 mph 14 mph 87% 0.000 in 0.00 W/m2
02:39 64.0 °F 60.0 °F 30.1 in SE 9 mph 9 mph 87% 0.000 in 0.00 W/m2
02:44 64.0 °F 60.0 °F 30.1 in SE 10 mph 11 mph 87% 0.000 in 0.00 W/m2
02:49 63.0 °F 59.0 °F 30.1 in SE 9 mph 11 mph 87% 0.000 in 0.00 W/m2
02:54 63.0 °F 59.0 °F 30.1 in SE 16 mph 16 mph 87% 0.000 in 0.00 W/m2
02:59 63.0 °F 59.0 °F 30.1 in SE 9 mph 16 mph 87% 0.000 in 0.00 W/m2
03:04 63.0 °F 59.0 °F 30.1 in SE 11 mph 12 mph 87% 0.000 in 0.00 W/m2
03:09 63.0 °F 59.0 °F 30.1 in SSE 7 mph 7 mph 87% 0.000 in 0.00 W/m2
03:14 63.0 °F 59.0 °F 30.1 in SE 8 mph 8 mph 87% 0.000 in 0.00 W/m2
03:19 63.0 °F 59.0 °F 30.1 in SE 8 mph 9 mph 87% 0.000 in 0.00 W/m2
03:24 63.0 °F 59.0 °F 30.1 in SE 10 mph 10 mph 87% 0.000 in 0.00 W/m2
03:29 62.0 °F 59.0 °F 30.1 in SE 9 mph 10 mph 87% 0.000 in 0.00 W/m2
03:34 62.0 °F 59.0 °F 30.1 in SE 9 mph 9 mph 87% 0.000 in 0.00 W/m2
03:39 62.0 °F 58.0 °F 30.1 in SE 8 mph 8 mph 87% 0.000 in 0.00 W/m2
03:44 62.0 °F 59.0 °F 30.1 in SE 9 mph 9 mph 88% 0.000 in 0.00 W/m2
03:49 62.0 °F 59.0 °F 30.1 in SE 5 mph 7 mph 88% 0.000 in 0.00 W/m2
03:54 62.0 °F 59.0 °F 30.1 in SE 8 mph 8 mph 88% 0.000 in 0.00 W/m2
03:59 62.0 °F 59.0 °F 30.1 in SE 8 mph 8 mph 88% 0.000 in 0.00 W/m2
04:04 62.0 °F 58.0 °F 30.1 in SE 7 mph 8 mph 88% 0.000 in 0.00 W/m2
04:09 62.0 °F 58.0 °F 30.1 in SE 7 mph 7 mph 88% 0.000 in 0.00 W/m2
04:14 62.0 °F 58.0 °F 30.1 in ESE 6 mph 8 mph 88% 0.000 in 0.00 W/m2
04:19 62.0 °F 58.0 °F 30.1 in SE 7 mph 8 mph 88% 0.000 in 0.00 W/m2
04:24 62.0 °F 58.0 °F 30.1 in SE 7 mph 7 mph 88% 0.000 in 0.00 W/m2
04:29 62.0 °F 58.0 °F 30.1 in SE 7 mph 7 mph 88% 0.000 in 0.00 W/m2
04:34 62.0 °F 58.0 °F 30.1 in SSE 6 mph 7 mph 88% 0.000 in 0.00 W/m2
04:39 61.0 °F 58.0 °F 30.1 in SE 8 mph 8 mph 88% 0.000 in 0.00 W/m2
04:44 61.0 °F 58.0 °F 30.1 in SE 10 mph 10 mph 89% 0.000 in 0.00 W/m2
04:49 62.0 °F 58.0 °F 30.1 in SE 9 mph 10 mph 89% 0.000 in 0.00 W/m2
04:54 62.0 °F 58.0 °F 30.1 in SE 7 mph 10 mph 89% 0.000 in 0.00 W/m2
04:59 62.0 °F 58.0 °F 30.1 in SE 9 mph 10 mph 89% 0.000 in 0.00 W/m2
05:04 61.0 °F 58.0 °F 30.1 in SE 10 mph 10 mph 89% 0.000 in 0.00 W/m2
05:09 61.0 °F 58.0 °F 30.1 in SE 8 mph 10 mph 89% 0.000 in 0.00 W/m2
05:14 61.0 °F 58.0 °F 30.1 in SE 8 mph 8 mph 89% 0.000 in 0.00 W/m2
05:19 61.0 °F 58.0 °F 30.1 in SE 8 mph 8 mph 89% 0.000 in 0.00 W/m2
05:24 61.0 °F 58.0 °F 30.1 in SE 8 mph 8 mph 89% 0.000 in 0.00 W/m2
05:29 61.0 °F 58.0 °F 30.1 in SE 5 mph 5 mph 89% 0.000 in 0.00 W/m2
05:34 61.0 °F 58.0 °F 30.1 in SE 8 mph 8 mph 89% 0.000 in 0.00 W/m2
05:39 61.0 °F 58.0 °F 30.1 in SE 5 mph 6 mph 89% 0.000 in 0.00 W/m2
05:44 61.0 °F 58.0 °F 30.1 in SE 6 mph 7 mph 89% 0.000 in 0.00 W/m2
05:49 61.0 °F 58.0 °F 30.1 in SE 7 mph 7 mph 89% 0.000 in 0.00 W/m2
05:54 61.0 °F 58.0 °F 30.1 in SE 6 mph 6 mph 89% 0.000 in 0.00 W/m2
05:59 61.0 °F 58.0 °F 30.1 in SE 5 mph 7 mph 89% 0.000 in 0.00 W/m2
06:04 61.0 °F 58.0 °F 30.1 in SE 7 mph 7 mph 89% 0.000 in 0.00 W/m2
06:09 61.0 °F 58.0 °F 30.1 in SE 5 mph 7 mph 89% 0.000 in 0.00 W/m2
06:14 61.0 °F 58.0 °F 30.1 in SE 5 mph 7 mph 89% 0.000 in 0.00 W/m2
06:19 61.0 °F 59.0 °F 30.1 in SE 6 mph 6 mph 90% 0.000 in 0.00 W/m2
06:24 61.0 °F 59.0 °F 30.1 in SSE 7 mph 7 mph 90% 0.000 in 0.00 W/m2
06:29 61.0 °F 59.0 °F 30.1 in SE 4 mph 7 mph 90% 0.000 in 0.00 W/m2
06:34 61.0 °F 59.0 °F 30.1 in SE 5 mph 5 mph 90% 0.000 in 0.00 W/m2
06:39 61.0 °F 59.0 °F 30.1 in SE 4 mph 5 mph 90% 0.000 in 0.00 W/m2
06:44 61.0 °F 59.0 °F 30.1 in SSE 5 mph 5 mph 90% 0.000 in 0.00 W/m2
06:49 61.0 °F 59.0 °F 30.1 in SE 7 mph 7 mph 90% 0.000 in 0.00 W/m2
06:54 61.0 °F 58.0 °F 30.1 in SE 6 mph 7 mph 90% 0.000 in 0.00 W/m2
06:59 61.0 °F 59.0 °F 30.1 in SE 8 mph 8 mph 90% 0.000 in 0.00 W/m2
07:04 61.0 °F 59.0 °F 30.1 in SE 6 mph 8 mph 90% 0.000 in 0.00 W/m2
07:09 62.0 °F 59.0 °F 30.1 in SE 8 mph 8 mph 90% 0.000 in 7.00 W/m2
07:14 62.0 °F 59.0 °F 30.1 in SE 6 mph 8 mph 90% 0.000 in 11.00 W/m2
07:19 62.0 °F 59.0 °F 30.1 in SE 8 mph 8 mph 90% 0.000 in 12.00 W/m2
07:24 62.0 °F 59.0 °F 30.1 in SE 6 mph 7 mph 90% 0.000 in 19.00 W/m2
07:29 62.0 °F 59.0 °F 30.1 in SE 7 mph 8 mph 90% 0.000 in 21.00 W/m2
07:34 62.0 °F 59.0 °F 30.1 in SE 7 mph 8 mph 90% 0.000 in 25.00 W/m2
07:39 62.0 °F 59.0 °F 30.1 in SE 8 mph 8 mph 90% 0.000 in 32.00 W/m2
07:44 62.0 °F 59.0 °F 30.1 in SE 8 mph 9 mph 90% 0.000 in 37.00 W/m2
07:49 63.0 °F 60.0 °F 30.1 in SE 7 mph 9 mph 90% 0.000 in 46.00 W/m2
07:54 63.0 °F 60.0 °F 30.1 in SE 8 mph 9 mph 90% 0.000 in 51.00 W/m2
07:59 63.0 °F 60.0 °F 30.1 in SE 9 mph 10 mph 90% 0.000 in 67.00 W/m2
08:04 63.0 °F 60.0 °F 30.1 in SE 11 mph 11 mph 90% 0.000 in 72.00 W/m2
08:09 63.0 °F 60.0 °F 30.1 in SE 9 mph 9 mph 90% 0.000 in 70.00 W/m2
08:14 64.0 °F 60.0 °F 30.1 in SSE 14 mph 14 mph 89% 0.000 in 70.00 W/m2
08:19 64.0 °F 61.0 °F 30.1 in SE 13 mph 14 mph 89% 0.000 in 181.00 W/m2
08:24 64.0 °F 61.0 °F 30.1 in SSE 12 mph 12 mph 89% 0.000 in 251.00 W/m2
08:29 65.0 °F 61.0 °F 30.1 in SSE 17 mph 18 mph 89% 0.000 in 237.00 W/m2
08:34 65.0 °F 61.0 °F 30.1 in SSE 14 mph 18 mph 88% 0.000 in 237.00 W/m2
08:39 66.0 °F 62.0 °F 30.1 in SSE 13 mph 13 mph 87% 0.000 in 257.00 W/m2
08:44 66.0 °F 62.0 °F 30.1 in SE 16 mph 16 mph 86% 0.000 in 306.00 W/m2
08:49 66.0 °F 62.0 °F 30.1 in SE 14 mph 16 mph 85% 0.000 in 160.00 W/m2
08:54 67.0 °F 62.0 °F 30.1 in SSE 15 mph 15 mph 84% 0.000 in 295.00 W/m2
08:59 67.0 °F 62.0 °F 30.1 in SSE 16 mph 16 mph 83% 0.000 in 311.00 W/m2
09:04 68.0 °F 62.0 °F 30.1 in SSE 16 mph 21 mph 82% 0.000 in 281.00 W/m2
09:09 68.0 °F 62.0 °F 30.1 in SSE 15 mph 16 mph 81% 0.000 in 281.00 W/m2
09:14 69.0 °F 62.0 °F 30.1 in SSE 15 mph 17 mph 79% 0.000 in 304.00 W/m2
09:19 69.0 °F 62.0 °F 30.1 in SSE 23 mph 23 mph 78% 0.000 in 339.00 W/m2
09:24 70.0 °F 62.0 °F 30.1 in SSE 15 mph 23 mph 77% 0.000 in 346.00 W/m2
09:29 70.0 °F 62.0 °F 30.1 in SSE 17 mph 19 mph 75% 0.000 in 315.00 W/m2
09:34 70.0 °F 62.0 °F 30.1 in South 13 mph 16 mph 75% 0.000 in 200.00 W/m2
09:39 70.0 °F 62.0 °F 30.1 in SSE 15 mph 17 mph 75% 0.000 in 204.00 W/m2
09:44 70.0 °F 62.0 °F 30.1 in SSE 12 mph 15 mph 75% 0.000 in 309.00 W/m2
09:49 71.0 °F 62.0 °F 30.1 in SSE 16 mph 16 mph 75% 0.000 in 309.00 W/m2
09:54 71.0 °F 62.0 °F 30.1 in SSE 17 mph 20 mph 74% 0.000 in 156.00 W/m2
09:59 71.0 °F 62.0 °F 30.1 in SSE 19 mph 20 mph 73% 0.000 in 163.00 W/m2
10:04 71.0 °F 62.0 °F 30.1 in South 11 mph 19 mph 73% 0.000 in 132.00 W/m2
10:09 70.0 °F 62.0 °F 30.1 in South 16 mph 16 mph 75% 0.000 in 65.00 W/m2
10:14 70.0 °F 62.0 °F 30.1 in SSE 16 mph 16 mph 77% 0.010 in 232.00 W/m2
10:19 70.0 °F 63.0 °F 30.1 in SSE 10 mph 12 mph 78% 0.010 in 220.00 W/m2
10:24 70.0 °F 63.0 °F 30.1 in SSE 13 mph 13 mph 79% 0.010 in 171.00 W/m2
10:29 69.0 °F 63.0 °F 30.1 in SSE 8 mph 11 mph 80% 0.010 in 258.00 W/m2
10:34 70.0 °F 64.0 °F 30.1 in SSE 11 mph 11 mph 81% 0.010 in 445.00 W/m2
10:39 70.0 °F 64.0 °F 30.1 in SSE 15 mph 15 mph 81% 0.010 in 629.00 W/m2
10:44 71.0 °F 64.0 °F 30.1 in SSE 17 mph 20 mph 81% 0.010 in 638.00 W/m2
10:49 71.0 °F 65.0 °F 30.1 in SE 12 mph 20 mph 80% 0.010 in 643.00 W/m2
10:54 72.0 °F 65.0 °F 30.1 in SSE 21 mph 21 mph 79% 0.010 in 657.00 W/m2
10:59 73.0 °F 64.0 °F 30.1 in SSE 18 mph 21 mph 75% 0.010 in 663.00 W/m2
11:04 74.0 °F 64.0 °F 30.1 in SE 21 mph 21 mph 74% 0.010 in 673.00 W/m2
11:09 74.0 °F 64.0 °F 30.1 in SSE 24 mph 24 mph 70% 0.010 in 689.00 W/m2
11:14 75.0 °F 63.0 °F 30.1 in SE 22 mph 24 mph 68% 0.010 in 710.00 W/m2
11:19 76.0 °F 63.0 °F 30.1 in SSE 22 mph 22 mph 66% 0.000 in 786.00 W/m2
11:24 76.0 °F 63.0 °F 30.1 in SSE 18 mph 22 mph 64% 0.000 in 529.00 W/m2
11:29 76.0 °F 62.0 °F 30.1 in SSE 22 mph 26 mph 64% 0.000 in 584.00 W/m2
11:34 77.0 °F 63.0 °F 30.1 in SSE 19 mph 19 mph 64% 0.000 in 853.00 W/m2
11:39 77.0 °F 63.0 °F 30.1 in SSE 19 mph 19 mph 63% 0.000 in 842.00 W/m2
11:44 76.0 °F 62.0 °F 30.1 in SSE 19 mph 19 mph 61% 0.000 in 229.00 W/m2
11:49 76.0 °F 61.0 °F 30.1 in SSE 16 mph 17 mph 61% 0.000 in 197.00 W/m2
11:54 75.0 °F 62.0 °F 30.1 in SSE 16 mph 19 mph 63% 0.000 in 221.00 W/m2
11:59 75.0 °F 62.0 °F 30.1 in SSE 16 mph 16 mph 63% 0.000 in 200.00 W/m2
12:04 75.0 °F 61.0 °F 30.1 in SSE 16 mph 21 mph 63% 0.000 in 332.00 W/m2
12:09 75.0 °F 61.0 °F 30.1 in SSE 15 mph 21 mph 63% 0.000 in 332.00 W/m2
12:14 75.0 °F 61.0 °F 30.1 in SSE 16 mph 16 mph 63% 0.000 in 190.00 W/m2
12:19 75.0 °F 61.0 °F 30.0 in SSE 16 mph 19 mph 63% 0.000 in 236.00 W/m2
12:24 74.0 °F 61.0 °F 30.0 in SSE 21 mph 24 mph 63% 0.000 in 155.00 W/m2
12:29 74.0 °F 61.0 °F 30.0 in SSE 19 mph 23 mph 64% 0.000 in 160.00 W/m2
12:34 74.0 °F 61.0 °F 30.0 in SSE 15 mph 18 mph 65% 0.000 in 255.00 W/m2
12:39 74.0 °F 62.0 °F 30.0 in SSE 19 mph 19 mph 65% 0.000 in 255.00 W/m2
12:44 75.0 °F 62.0 °F 30.0 in SSE 18 mph 20 mph 65% 0.000 in 381.00 W/m2
12:49 75.0 °F 62.0 °F 30.0 in SSE 20 mph 23 mph 64% 0.000 in 411.00 W/m2
12:54 75.0 °F 62.0 °F 30.0 in SSE 21 mph 23 mph 64% 0.000 in 411.00 W/m2
12:59 75.0 °F 62.0 °F 30.0 in SSE 17 mph 24 mph 63% 0.000 in 250.00 W/m2
13:04 75.0 °F 62.0 °F 30.0 in SSE 19 mph 23 mph 64% 0.000 in 292.00 W/m2
13:09 76.0 °F 63.0 °F 30.0 in SSE 17 mph 21 mph 64% 0.000 in 867.00 W/m2
13:14 77.0 °F 62.0 °F 30.0 in SSE 22 mph 22 mph 62% 0.000 in 232.00 W/m2
13:19 77.0 °F 62.0 °F 30.0 in SSE 20 mph 23 mph 61% 0.000 in 930.00 W/m2
13:24 77.0 °F 63.0 °F 30.0 in SSE 20 mph 23 mph 61% 0.000 in 930.00 W/m2
13:29 77.0 °F 62.0 °F 30.0 in South 20 mph 22 mph 60% 0.000 in 348.00 W/m2
13:34 77.0 °F 62.0 °F 30.0 in SSE 20 mph 20 mph 60% 0.000 in 338.00 W/m2
13:39 77.0 °F 62.0 °F 30.0 in SSE 16 mph 19 mph 60% 0.000 in 373.00 W/m2
15:44 71.0 °F 62.0 °F 30.0 in South 13 mph 17 mph 74% 0.000 in 105.00 W/m2
16:00 70.0 °F 62.0 °F 30.0 in SE 15 mph 15 mph 76% 0.000 in 47.00 W/m2
16:05 70.0 °F 62.0 °F 30.0 in SE 5 mph 14 mph 77% 0.000 in 40.00 W/m2
16:15 69.0 °F 63.0 °F 30.0 in SSE 9 mph 18 mph 79% 0.000 in 42.00 W/m2
16:24 69.0 °F 63.0 °F 30.0 in SSE 8 mph 19 mph 81% 0.000 in 33.00 W/m2
16:28 69.0 °F 63.0 °F 30.0 in SSE 7 mph 11 mph 82% 0.000 in 44.00 W/m2
16:34 69.0 °F 63.0 °F 30.0 in SSE 8 mph 10 mph 82% 0.000 in 25.00 W/m2
16:39 69.0 °F 63.0 °F 30.0 in SSE 10 mph 12 mph 83% 0.000 in 26.00 W/m2
16:44 68.0 °F 63.0 °F 30.0 in SSE 9 mph 12 mph 84% 0.010 in 23.00 W/m2
16:49 68.0 °F 63.0 °F 30.0 in SE 8 mph 10 mph 84% 0.010 in 19.00 W/m2
16:54 68.0 °F 63.0 °F 30.0 in SSE 10 mph 10 mph 85% 0.010 in 21.00 W/m2
16:59 68.0 °F 63.0 °F 30.0 in SSE 11 mph 12 mph 85% 0.010 in 30.00 W/m2
17:04 68.0 °F 64.0 °F 29.9 in SE 9 mph 10 mph 86% 0.010 in 44.00 W/m2
17:09 68.0 °F 63.0 °F 29.9 in SE 13 mph 14 mph 86% 0.010 in 51.00 W/m2
17:14 68.0 °F 63.0 °F 29.9 in SE 11 mph 11 mph 86% 0.010 in 46.00 W/m2
17:19 68.0 °F 63.0 °F 29.9 in SSE 10 mph 12 mph 86% 0.010 in 18.00 W/m2
17:24 68.0 °F 64.0 °F 29.9 in SE 10 mph 12 mph 87% 0.010 in 25.00 W/m2
17:29 68.0 °F 64.0 °F 29.9 in SE 12 mph 12 mph 87% 0.010 in 19.00 W/m2
17:34 67.0 °F 63.0 °F 29.9 in SE 10 mph 12 mph 87% 0.010 in 14.00 W/m2
17:39 67.0 °F 64.0 °F 29.9 in SE 10 mph 10 mph 88% 0.010 in 14.00 W/m2
17:44 67.0 °F 64.0 °F 29.9 in SE 10 mph 10 mph 88% 0.010 in 9.00 W/m2
17:49 67.0 °F 64.0 °F 29.9 in SE 8 mph 10 mph 88% 0.000 in 9.00 W/m2
17:54 67.0 °F 64.0 °F 29.9 in SE 10 mph 11 mph 88% 0.000 in 11.00 W/m2
17:59 67.0 °F 64.0 °F 29.9 in SE 11 mph 11 mph 88% 0.000 in 5.00 W/m2
18:04 67.0 °F 64.0 °F 29.9 in SE 10 mph 11 mph 88% 0.000 in 0.00 W/m2
18:09 67.0 °F 64.0 °F 29.9 in SSE 12 mph 12 mph 88% 0.000 in 0.00 W/m2
18:14 67.0 °F 64.0 °F 29.9 in SE 14 mph 15 mph 88% 0.000 in 0.00 W/m2
18:19 67.0 °F 64.0 °F 29.9 in SSE 14 mph 14 mph 88% 0.000 in 0.00 W/m2
18:24 67.0 °F 64.0 °F 29.9 in SE 17 mph 18 mph 89% 0.000 in 0.00 W/m2
18:29 68.0 °F 64.0 °F 29.9 in SE 16 mph 21 mph 89% 0.000 in 0.00 W/m2
18:34 68.0 °F 64.0 °F 29.9 in SSE 15 mph 16 mph 89% 0.000 in 0.00 W/m2
18:39 68.0 °F 64.0 °F 29.9 in SSE 13 mph 18 mph 89% 0.000 in 0.00 W/m2
18:44 68.0 °F 64.0 °F 29.9 in SE 16 mph 17 mph 89% 0.000 in 0.00 W/m2
18:49 68.0 °F 64.0 °F 29.9 in SE 14 mph 16 mph 89% 0.000 in 0.00 W/m2
18:54 68.0 °F 64.0 °F 29.9 in SE 18 mph 18 mph 89% 0.000 in 0.00 W/m2
18:59 68.0 °F 64.0 °F 29.9 in SSE 16 mph 16 mph 89% 0.000 in 0.00 W/m2
19:04 68.0 °F 64.0 °F 29.9 in SE 13 mph 16 mph 89% 0.000 in 0.00 W/m2
19:09 68.0 °F 64.0 °F 29.9 in SE 16 mph 17 mph 89% 0.000 in 0.00 W/m2
19:14 68.0 °F 64.0 °F 29.9 in SE 14 mph 14 mph 89% 0.000 in 0.00 W/m2
19:19 68.0 °F 64.0 °F 29.9 in SE 13 mph 13 mph 89% 0.000 in 0.00 W/m2
19:24 68.0 °F 64.0 °F 29.9 in SE 12 mph 13 mph 89% 0.000 in 0.00 W/m2
19:29 68.0 °F 64.0 °F 29.9 in SSE 12 mph 13 mph 89% 0.000 in 0.00 W/m2
19:34 68.0 °F 64.0 °F 29.9 in SE 13 mph 14 mph 89% 0.000 in 0.00 W/m2
19:39 68.0 °F 64.0 °F 29.9 in SSE 13 mph 15 mph 89% 0.000 in 0.00 W/m2
19:44 68.0 °F 64.0 °F 29.9 in SE 15 mph 16 mph 89% 0.000 in 0.00 W/m2
19:49 68.0 °F 64.0 °F 29.9 in SSE 13 mph 16 mph 89% 0.000 in 0.00 W/m2
19:54 68.0 °F 64.0 °F 29.9 in SE 13 mph 14 mph 89% 0.000 in 0.00 W/m2
19:59 68.0 °F 65.0 °F 29.9 in SE 13 mph 14 mph 89% 0.000 in 0.00 W/m2
20:04 68.0 °F 65.0 °F 29.9 in SSE 13 mph 14 mph 89% 0.000 in 0.00 W/m2
20:09 68.0 °F 65.0 °F 29.9 in SSE 9 mph 14 mph 89% 0.000 in 0.00 W/m2
20:14 68.0 °F 65.0 °F 29.9 in SE 12 mph 12 mph 89% 0.000 in 0.00 W/m2
20:19 68.0 °F 65.0 °F 29.9 in SE 11 mph 11 mph 89% 0.000 in 0.00 W/m2
20:24 68.0 °F 65.0 °F 29.9 in SE 11 mph 12 mph 89% 0.000 in 0.00 W/m2
20:29 68.0 °F 65.0 °F 29.9 in SE 12 mph 12 mph 89% 0.000 in 0.00 W/m2
20:34 68.0 °F 65.0 °F 29.9 in SSE 14 mph 14 mph 89% 0.010 in 0.00 W/m2
20:39 68.0 °F 65.0 °F 29.9 in SSE 11 mph 12 mph 89% 0.010 in 0.00 W/m2
20:44 68.0 °F 65.0 °F 29.9 in SE 8 mph 10 mph 89% 0.010 in 0.00 W/m2
20:49 68.0 °F 65.0 °F 29.9 in SE 9 mph 9 mph 89% 0.010 in 0.00 W/m2
20:54 68.0 °F 65.0 °F 29.9 in SE 7 mph 9 mph 89% 0.010 in 0.00 W/m2
20:59 68.0 °F 65.0 °F 29.9 in SE 4 mph 5 mph 89% 0.010 in 0.00 W/m2
21:04 68.0 °F 65.0 °F 29.9 in SE 6 mph 6 mph 89% 0.010 in 0.00 W/m2
21:09 68.0 °F 65.0 °F 29.9 in SE 3 mph 3 mph 89% 0.010 in 0.00 W/m2
21:14 68.0 °F 64.0 °F 29.9 in SE 5 mph 5 mph 89% 0.010 in 0.00 W/m2
21:19 68.0 °F 64.0 °F 29.9 in SE 6 mph 6 mph 89% 0.010 in 0.00 W/m2
21:24 68.0 °F 64.0 °F 29.9 in ESE 5 mph 7 mph 89% 0.010 in 0.00 W/m2
21:29 68.0 °F 64.0 °F 29.9 in SE 6 mph 6 mph 89% 0.010 in 0.00 W/m2
21:34 68.0 °F 65.0 °F 29.9 in SSE 6 mph 6 mph 90% 0.010 in 0.00 W/m2
21:39 68.0 °F 65.0 °F 29.9 in SE 7 mph 7 mph 90% 0.010 in 0.00 W/m2
21:44 68.0 °F 65.0 °F 29.9 in SE 8 mph 9 mph 90% 0.010 in 0.00 W/m2
21:49 68.0 °F 65.0 °F 29.9 in SSE 6 mph 8 mph 90% 0.010 in 0.00 W/m2
21:54 68.0 °F 65.0 °F 29.9 in SSE 7 mph 9 mph 90% 0.020 in 0.00 W/m2
21:59 68.0 °F 65.0 °F 29.9 in SSE 7 mph 7 mph 90% 0.020 in 0.00 W/m2
22:04 68.0 °F 65.0 °F 29.9 in SE 9 mph 9 mph 90% 0.020 in 0.00 W/m2
22:09 68.0 °F 65.0 °F 29.9 in SE 8 mph 9 mph 90% 0.020 in 0.00 W/m2
22:14 68.0 °F 65.0 °F 29.9 in SSE 8 mph 9 mph 90% 0.030 in 0.00 W/m2
22:19 68.0 °F 65.0 °F 29.9 in SSE 8 mph 8 mph 90% 0.030 in 0.00 W/m2
22:24 68.0 °F 65.0 °F 29.9 in SSE 8 mph 8 mph 90% 0.030 in 0.00 W/m2
22:29 68.0 °F 65.0 °F 29.9 in SSE 10 mph 11 mph 90% 0.030 in 0.00 W/m2
22:34 68.0 °F 65.0 °F 29.9 in SSE 9 mph 11 mph 90% 0.030 in 0.00 W/m2
22:39 68.0 °F 65.0 °F 29.9 in SSE 12 mph 12 mph 90% 0.030 in 0.00 W/m2
22:44 68.0 °F 66.0 °F 29.9 in SSE 11 mph 11 mph 91% 0.030 in 0.00 W/m2
22:49 68.0 °F 66.0 °F 29.9 in SE 13 mph 13 mph 91% 0.030 in 0.00 W/m2
22:54 68.0 °F 66.0 °F 29.9 in SSE 12 mph 13 mph 91% 0.030 in 0.00 W/m2
22:59 68.0 °F 66.0 °F 29.9 in SE 12 mph 12 mph 91% 0.020 in 0.00 W/m2
23:04 68.0 °F 66.0 °F 29.9 in SE 12 mph 15 mph 91% 0.020 in 0.00 W/m2
23:09 68.0 °F 66.0 °F 29.9 in SE 20 mph 20 mph 91% 0.020 in 0.00 W/m2
23:14 68.0 °F 66.0 °F 29.9 in SE 12 mph 12 mph 91% 0.020 in 0.00 W/m2
23:19 68.0 °F 66.0 °F 29.9 in SE 16 mph 16 mph 91% 0.010 in 0.00 W/m2
23:24 68.0 °F 66.0 °F 29.9 in SE 14 mph 14 mph 91% 0.010 in 0.00 W/m2
23:29 69.0 °F 66.0 °F 29.9 in SE 17 mph 17 mph 91% 0.010 in 0.00 W/m2
23:34 68.0 °F 66.0 °F 29.9 in SSE 15 mph 15 mph 91% 0.010 in 0.00 W/m2
23:39 68.0 °F 66.0 °F 29.9 in SE 17 mph 17 mph 91% 0.010 in 0.00 W/m2
23:44 68.0 °F 66.0 °F 29.9 in SE 18 mph 18 mph 91% 0.010 in 0.00 W/m2
23:49 68.0 °F 66.0 °F 29.9 in SE 16 mph 18 mph 91% 0.000 in 0.00 W/m2
23:54 68.0 °F 66.0 °F 29.9 in SE 13 mph 16 mph 91% 0.000 in 0.00 W/m2
23:59 68.0 °F 66.0 °F 29.9 in SE 15 mph 15 mph 91% 0.000 in 0.00 W/m2
Villages of Bridgestone, Spring, TX USA
Compliments of Weather Underground - 4 mb